Axtell, TX

11:46 AM CST on March 01, 2015 (GMT -0600)
McGregor Executive | Change Station
CLOSE
Current Station
Airport
Location: McGregor,
Elevation: 591 ft
Nearby Weather Stations

Elev 591 ft 31.48 °N, 97.32 °W | Updated 11 minutes ago

Overcast
Overcast
37 °F
Feels Like 29 °F
N
13
Wind Variable Wind from North
Gusts 10 mph

Today
High -- | Low -- °F
--% Chance of Precip.
Yesterday
High -- | Low -- °F
Precip. -- in
6:55 AM 6:25 PM
Waxing Gibbous, 86% visible
Pressure 30.34 in
Visibility 2.5 miles
Clouds
Windchill 29 °F
Dew Point 34 °F
Humidity 87%
Rainfall 0.20 in
Snow Depth Not available.
UV Not available.
Pollen 7.00 out of 12
Air Quality Not available.
Flu Activity Not available.
METAR KPWG 011735Z AUTO 35011KT 2 1/2SM 03/01 A3034 RMK AO1

More Conditions Fewer Conditions

Pressure 30.34 in
Visibility 2.5 miles
Clouds
Windchill 29 °F
Dew Point 34 °F
Humidity 87%
Rainfall 0.20 in
Snow Depth Not available.
UV Not available.
Pollen 7.00 out of 12
Air Quality Not available.
Flu Activity Not available.
METAR KPWG 011735Z AUTO 35011KT 2 1/2SM 03/01 A3034 RMK AO1

More Conditions Fewer Conditions

Nowcast | as of 10:47 am CST on March 1, 2015

All of the region has warmed to or above 32 degrees as of 1030 am. Any additional precipitation will not stick due to weak isolation reaching the ground. Thus...roads will continue to improve through the afternoon where ice and slush remain. The melting process will also cause falling ice from powerlines...trees and other tall structures. Areas of light drizzle and light rain will continue to occur generally southeast of a Comanche to Sherman line through the afternoon. It will remain cloudy and damp all day with temperatures reaching the mid 30s around Nocona to near 50 at Centerville around mid afternoon.

×

10-Day Weather Forecast

Almanac

Astronomy

Mar. 01, 2015 Rise Set
Actual Time
Civil Twilight
Nautical Twilight
Astronomical Twilight
Moon
Length of Visible Light
Length of Day
Tomorrow will be .
, % of the Moon is Illuminated

Today's Extremes

State Highs State Lows

Community

WunderPhotos

Upload Photos

1,801,483 photos uploaded!

WunderBlogs® & News

Nearby

Air Quality

  Air Quality AQ Index Pollutant
Not available.

Snow Depth

Station Depth Elevation

Earthquake Activity

City Distance Mag. Time & Date
Minimum magnitude displayed is 2.5.

Coastal Water Temperatures

Place Temperature

Nearby Weather Stations